This is the latest recevied weather packets stored in our database for station/object LRBV. If no packets are shown the sender has not sent any weather packets the latest 10 day(s).
| Time | Temp. | Humidity | Pressure | Rain* | Wind** | Luminosity | Snow |
|---|---|---|---|---|---|---|---|
| 1777262630 | 1.11° C | 70% | 1023 hPa | - | - | - | - |
| 1777261728 | 1.11° C | 70% | 1023 hPa | - | - | - | - |
| 1777260868 | 1.11° C | 70% | 1023 hPa | - | - | - | - |
| 1777259928 | 1.11° C | 65% | 1023 hPa | - | - | - | - |
| 1777259031 | 1.11° C | 65% | 1023 hPa | - | - | - | - |
| 1777258131 | 0° C | 69% | 1023 hPa | - | - | - | - |
| 1777257231 | 0° C | 69% | 1023 hPa | - | - | - | - |
| 1777256330 | 2.22° C | 60% | 1022 hPa | - | - | - | - |
| 1777255430 | 2.22° C | 60% | 1022 hPa | - | - | - | - |
| 1777254531 | 2.78° C | 52% | 1022 hPa | - | - | - | - |
| 1777253630 | 2.78° C | 52% | 1022 hPa | - | - | - | - |
| 1777252729 | 3.89° C | 52% | 1022 hPa | - | - | - | - |
| 1777251832 | 3.89° C | 52% | 1022 hPa | - | - | - | - |
| 1777250931 | 5° C | 49% | 1022 hPa | - | - | - | - |
| 1777250031 | 5° C | 49% | 1022 hPa | - | - | - | - |
| 1777249130 | 6.11° C | 46% | 1022 hPa | - | - | - | - |
| 1777248246 | 6.11° C | 46% | 1022 hPa | - | - | - | - |
| 1777247330 | 7.22° C | 39% | 1022 hPa | - | - | - | - |
| 1777246461 | 7.22° C | 39% | 1022 hPa | - | - | - | - |
| 1777245531 | 6.11° C | 46% | 1021 hPa | - | - | - | - |
| 1777244631 | 6.11° C | 46% | 1021 hPa | - | - | - | - |
| 1777243728 | 6.11° C | 46% | 1021 hPa | - | - | - | - |
| 1777242831 | 6.11° C | 46% | 1021 hPa | - | - | - | - |
| 1777241931 | 6.11° C | 42% | 1021 hPa | - | - | - | - |
| 1777241030 | 6.11° C | 42% | 1021 hPa | - | - | - | - |
* Rain since midnight (hover to see other rain measurements)
** Current wind speed in m/s (hover to see current wind gust speed)